Robins AFB, Georgia
Current Conditions -  °F | °C
As of 1:58 AM on Saturday 22 Nov 2014 (Local Time) from KWRB Reporting Station
Clear Clear  
Wind Chill: 36°   Ceiling: Unl
Heat Index: 36°   Visibility: 10mi
Dew Point: 34°   Wind: 0mph
Humidity: 93%   Direction: NA
Pressure: 30.39"   Gusts: NA
Location:  32.6187°N, 83.5735°W
Report Text: KWRB 220658Z AUTO 00000KT 10SM CLR 02/01 A3039 RMK AO2 SLP294 T00200010
Loading
Personal Weather Stations






























Interactive Weather Map New forecast layout! Learn more

10-Day Weather Forecast

Advertisements
Track Severe Weather on mobile